• Join FlightAware (Why Join?)
  • Login
  • US Flag 
10:53PM EST


 

Airport Tracker/Info


-or-


 

Live Flight TrackerFlight Track Log ✈ LNI33 ✈ 21-Mar-2014 ✈ WADD / DPS - WIII / CGK

Flight Track Log - Related Links

Times and Time Zones

All times are in EDT time to prevent confusion due to time zone crossing. See the LNI33 flight status page for this flight to view local times or setup timezone preferences in your user account.

Time Position Orientation Groundspeed Altitude Reporting Facility
EDT Latitude Longitude Course Direction KTS MPH feet Rate Location/Type
07:59AM -8.1835 113.9412 292° West 462 532 30,800  Level FlightAware ADS-B
07:59AM -8.1771 113.9336 314° West 462 532 30,900 1,140 Climbing FlightAware ADS-B
08:00AM -8.1231 113.8795 315° West 460 529 31,600 1,200 Climbing FlightAware ADS-B
08:00AM -8.0700 113.8266 315° West 455 524 32,400 1,200 Climbing FlightAware ADS-B
08:01AM -8.0089 113.7660 316° Northwest 453 521 33,100 900 Climbing FlightAware ADS-B
08:01AM -7.9663 113.7244 316° Northwest 455 524 33,500 780 Climbing FlightAware ADS-B
08:02AM -7.9242 113.6830 316° Northwest 458 527 34,000 720 Climbing FlightAware ADS-B
08:03AM -7.8562 113.6162 316° Northwest 458 527 34,400 780 Climbing FlightAware ADS-B
08:03AM -7.8090 113.5696 315° West 460 529 34,900 840 Climbing FlightAware ADS-B
08:04AM -7.7662 113.5270 315° West 462 532 35,300 660 Climbing FlightAware ADS-B
08:04AM -7.7079 113.4694 316° Northwest 463 533 35,700 600 Climbing FlightAware ADS-B
08:05AM -7.6673 113.4267 305° West 464 534 36,000 240 Climbing FlightAware ADS-B
08:05AM -7.6320 113.3566 294° West 471 542 36,000  Level FlightAware ADS-B
08:06AM -7.5996 113.2874 296° West 476 548 36,000  Level FlightAware ADS-B
08:06AM -7.5681 113.2195 294° West 477 549 36,000  Level FlightAware ADS-B
08:07AM -7.5425 113.1624 294° West 477 549 36,000  Level FlightAware ADS-B
08:07AM -7.5123 113.0947 294° West 479 551 36,000  Level FlightAware ADS-B
08:08AM -7.4995 113.0663 294° West 478 550 36,000  Level FlightAware ADS-B
08:09AM -7.4673 112.9944 294° West 480 552 36,000  Level FlightAware ADS-B
08:10AM -7.4218 112.8925 294° West 480 552 36,000  Level FlightAware ADS-B
08:10AM -7.3698 112.7754 294° West 479 551 36,000  Level FlightAware ADS-B
08:11AM -7.3552 112.7428 294° West 479 551 36,000  Level FlightAware ADS-B (RPLS / SGL)
08:11AM -7.3060 112.6322 294° West 479 551 36,000  Level FlightAware ADS-B
08:12AM -7.2780 112.5692 294° West 477 549 36,000  Level FlightAware ADS-B
08:12AM -7.2500 112.5061 294° West 475 547 36,000  Level FlightAware ADS-B
08:13AM -7.2238 112.4473 294° West 473 544 36,000  Level FlightAware ADS-B
08:13AM -7.2023 112.3992 294° West 470 541 36,000  Level FlightAware ADS-B
08:14AM -7.2175 112.4333 294° West 469 540 36,000  Level FlightAware ADS-B
08:16AM -6.1256 106.6559 280° West  Level Estimated